Decoded Metar for OBBI (BAHRAIN in BAHRAIN) (IATA:BAH) | Meteo·Mobile Aviation Weather
aviador You're here:

OBBI Decoded Metar

BAHRAIN in BAHRAIN
Report Time2019-07-22 15:30:00
UTC Time2019-07-22 15:49:31
Flight Rules vfr VFR
Wind350° at 06 kt
W.Decomp.*RWY 30: 4.0 kt HW 4.5 kt RCW
Visibility9999 m
Phenomena:N/A
Clouds:N/A
Expected CloudBase > 2,400 ft AGL from Temp-Dew spread
CeilingNone
Temp34°C (ISA +19)
Dew Point28°C (71% RH)
Heat Index47.3°C
QNH0996 hPa
Density Alt3,235 ft
Elevation7 ft
Report Wrong Elevation
Raw Report
OBBI 221530Z 35006KT CAVOK 34/28 Q0996 NOSIG=

Extra information for OBBI:More info

Metar Taf Metar & Taf Last 4 Metars F.Rules Stats Wind Profile Meteogram Temp Stats Airport Information Weather charts Add Link Nearby VenuesMetar ALERT Operation Metar Decoded Social comments